sensor_id;sensor_type;location;lat;lon;timestamp;temperature;humidity
26272;DHT22;13997;48.902;12.472;2023-03-23T00:02:27;230.40;2252.80
26272;DHT22;13997;48.902;12.472;2023-03-23T00:04:54;230.40;2252.80
26272;DHT22;13997;48.902;12.472;2023-03-23T00:07:20;230.40;2252.80
26272;DHT22;13997;48.902;12.472;2023-03-23T00:09:53;230.40;2252.80
26272;DHT22;13997;48.902;12.472;2023-03-23T00:12:27;230.40;2252.80
26272;DHT22;13997;48.902;12.472;2023-03-23T00:15:07;230.40;2252.80
26272;DHT22;13997;48.902;12.472;2023-03-23T00:17:34;205.70;2252.80
26272;DHT22;13997;48.902;12.472;2023-03-23T00:20:00;205.70;2252.80
26272;DHT22;13997;48.902;12.472;2023-03-23T00:22:27;205.70;2252.80
26272;DHT22;13997;48.902;12.472;2023-03-23T00:24:53;205.70;2252.80
26272;DHT22;13997;48.902;12.472;2023-03-23T00:27:19;205.70;2252.80
26272;DHT22;13997;48.902;12.472;2023-03-23T00:29:48;205.70;2252.80
26272;DHT22;13997;48.902;12.472;2023-03-23T00:32:13;205.60;2252.80
26272;DHT22;13997;48.902;12.472;2023-03-23T00:34:40;205.60;2252.80
26272;DHT22;13997;48.902;12.472;2023-03-23T00:37:06;205.60;2252.80
26272;DHT22;13997;48.902;12.472;2023-03-23T00:39:33;205.60;2252.80
26272;DHT22;13997;48.902;12.472;2023-03-23T00:42:02;205.60;2252.80
26272;DHT22;13997;48.902;12.472;2023-03-23T00:44:30;205.60;2252.80
26272;DHT22;13997;48.902;12.472;2023-03-23T00:46:57;205.60;2252.80
26272;DHT22;13997;48.902;12.472;2023-03-23T00:49:24;205.60;2252.80
26272;DHT22;13997;48.902;12.472;2023-03-23T00:51:52;205.60;2252.80
26272;DHT22;13997;48.902;12.472;2023-03-23T00:54:18;205.60;2252.80
26272;DHT22;13997;48.902;12.472;2023-03-23T00:56:43;205.60;2252.80
26272;DHT22;13997;48.902;12.472;2023-03-23T00:59:09;205.60;2252.80
26272;DHT22;13997;48.902;12.472;2023-03-23T01:01:35;205.50;2252.80
26272;DHT22;13997;48.902;12.472;2023-03-23T01:04:02;205.50;2252.80
26272;DHT22;13997;48.902;12.472;2023-03-23T01:06:34;205.50;2252.80
26272;DHT22;13997;48.902;12.472;2023-03-23T01:09:01;205.50;2252.80
26272;DHT22;13997;48.902;12.472;2023-03-23T01:11:27;205.40;2252.80
26272;DHT22;13997;48.902;12.472;2023-03-23T01:13:53;205.40;2252.80
26272;DHT22;13997;48.902;12.472;2023-03-23T01:16:18;205.40;2252.80
26272;DHT22;13997;48.902;12.472;2023-03-23T01:18:44;205.30;2252.80
26272;DHT22;13997;48.902;12.472;2023-03-23T01:21:13;205.40;2252.80
26272;DHT22;13997;48.902;12.472;2023-03-23T01:23:39;205.30;2252.80
26272;DHT22;13997;48.902;12.472;2023-03-23T01:26:06;205.30;2252.80
26272;DHT22;13997;48.902;12.472;2023-03-23T01:28:33;205.30;2252.80
26272;DHT22;13997;48.902;12.472;2023-03-23T01:31:02;205.30;2252.80
26272;DHT22;13997;48.902;12.472;2023-03-23T01:33:28;205.30;2252.80
26272;DHT22;13997;48.902;12.472;2023-03-23T01:35:54;205.20;2252.80
26272;DHT22;13997;48.902;12.472;2023-03-23T01:38:20;205.20;2252.80
26272;DHT22;13997;48.902;12.472;2023-03-23T01:40:46;205.10;2252.80
26272;DHT22;13997;48.902;12.472;2023-03-23T01:43:14;205.10;2252.80
26272;DHT22;13997;48.902;12.472;2023-03-23T01:45:40;205.10;2252.80
26272;DHT22;13997;48.902;12.472;2023-03-23T01:48:17;205.10;2252.80
26272;DHT22;13997;48.902;12.472;2023-03-23T01:53:28;205.10;2252.80
26272;DHT22;13997;48.902;12.472;2023-03-23T01:55:57;205.10;2252.80
26272;DHT22;13997;48.902;12.472;2023-03-23T01:58:27;205.10;2252.80
26272;DHT22;13997;48.902;12.472;2023-03-23T02:00:55;205.00;2252.80
26272;DHT22;13997;48.902;12.472;2023-03-23T02:03:22;205.00;2252.80
26272;DHT22;13997;48.902;12.472;2023-03-23T02:05:49;204.90;2252.80
26272;DHT22;13997;48.902;12.472;2023-03-23T02:08:16;204.90;2252.80
26272;DHT22;13997;48.902;12.472;2023-03-23T02:10:43;204.90;2252.80
26272;DHT22;13997;48.902;12.472;2023-03-23T02:13:10;204.90;2252.80
26272;DHT22;13997;48.902;12.472;2023-03-23T02:21:39;204.90;2252.80
26272;DHT22;13997;48.902;12.472;2023-03-23T02:27:16;204.80;2252.80
26272;DHT22;13997;48.902;12.472;2023-03-23T02:29:52;180.10;2252.80
26272;DHT22;13997;48.902;12.472;2023-03-23T02:35:24;204.80;2252.80
26272;DHT22;13997;48.902;12.472;2023-03-23T02:37:59;204.80;2252.80
26272;DHT22;13997;48.902;12.472;2023-03-23T02:40:35;204.80;2252.80
26272;DHT22;13997;48.902;12.472;2023-03-23T02:43:02;180.10;2252.80
26272;DHT22;13997;48.902;12.472;2023-03-23T02:45:31;180.10;2252.80
26272;DHT22;13997;48.902;12.472;2023-03-23T02:48:00;204.80;2252.80
26272;DHT22;13997;48.902;12.472;2023-03-23T02:50:28;204.80;2252.80
26272;DHT22;13997;48.902;12.472;2023-03-23T02:52:56;204.80;2252.80
26272;DHT22;13997;48.902;12.472;2023-03-23T02:55:25;204.80;2252.80
26272;DHT22;13997;48.902;12.472;2023-03-23T02:57:54;204.90;2252.80
26272;DHT22;13997;48.902;12.472;2023-03-23T03:00:20;204.90;2252.80
26272;DHT22;13997;48.902;12.472;2023-03-23T03:02:48;204.80;2252.80
26272;DHT22;13997;48.902;12.472;2023-03-23T03:05:38;204.80;2252.80
26272;DHT22;13997;48.902;12.472;2023-03-23T03:11:16;204.80;2252.80
26272;DHT22;13997;48.902;12.472;2023-03-23T03:13:47;204.80;2252.80
26272;DHT22;13997;48.902;12.472;2023-03-23T03:16:17;204.80;2252.80
26272;DHT22;13997;48.902;12.472;2023-03-23T03:18:55;204.80;2252.80
26272;DHT22;13997;48.902;12.472;2023-03-23T03:21:23;204.80;2252.80
26272;DHT22;13997;48.902;12.472;2023-03-23T03:23:55;204.80;2252.80
26272;DHT22;13997;48.902;12.472;2023-03-23T03:26:25;204.80;2252.80
26272;DHT22;13997;48.902;12.472;2023-03-23T03:28:52;204.80;2252.80
26272;DHT22;13997;48.902;12.472;2023-03-23T03:31:21;180.10;2252.80
26272;DHT22;13997;48.902;12.472;2023-03-23T03:33:47;180.10;2252.80
26272;DHT22;13997;48.902;12.472;2023-03-23T03:36:19;204.80;2252.80
26272;DHT22;13997;48.902;12.472;2023-03-23T03:38:48;204.80;2252.80
26272;DHT22;13997;48.902;12.472;2023-03-23T03:41:16;204.80;2252.80
26272;DHT22;13997;48.902;12.472;2023-03-23T03:43:42;204.80;2252.80
26272;DHT22;13997;48.902;12.472;2023-03-23T03:46:07;204.80;2252.80
26272;DHT22;13997;48.902;12.472;2023-03-23T03:48:33;204.80;2252.80
26272;DHT22;13997;48.902;12.472;2023-03-23T03:50:59;204.80;2252.80
26272;DHT22;13997;48.902;12.472;2023-03-23T03:53:26;204.90;2252.80
26272;DHT22;13997;48.902;12.472;2023-03-23T03:55:51;204.90;2252.80
26272;DHT22;13997;48.902;12.472;2023-03-23T03:58:21;204.90;2252.80
26272;DHT22;13997;48.902;12.472;2023-03-23T04:00:48;204.90;2252.80
26272;DHT22;13997;48.902;12.472;2023-03-23T04:03:14;204.90;2252.80
26272;DHT22;13997;48.902;12.472;2023-03-23T04:05:40;204.90;2252.80
26272;DHT22;13997;48.902;12.472;2023-03-23T04:08:07;204.80;2252.80
26272;DHT22;13997;48.902;12.472;2023-03-23T04:10:33;204.80;2252.80
26272;DHT22;13997;48.902;12.472;2023-03-23T04:12:59;204.80;2252.80
26272;DHT22;13997;48.902;12.472;2023-03-23T04:15:25;204.80;2252.80
26272;DHT22;13997;48.902;12.472;2023-03-23T04:17:51;204.80;2252.80
26272;DHT22;13997;48.902;12.472;2023-03-23T04:20:17;204.80;2252.80
26272;DHT22;13997;48.902;12.472;2023-03-23T04:22:47;204.80;2252.80
26272;DHT22;13997;48.902;12.472;2023-03-23T04:25:19;204.80;2252.80
26272;DHT22;13997;48.902;12.472;2023-03-23T04:27:49;204.80;2252.80
26272;DHT22;13997;48.902;12.472;2023-03-23T04:30:21;204.90;2252.80
26272;DHT22;13997;48.902;12.472;2023-03-23T04:32:49;204.90;2252.80
26272;DHT22;13997;48.902;12.472;2023-03-23T04:35:17;204.90;2252.80
26272;DHT22;13997;48.902;12.472;2023-03-23T04:37:43;204.90;2252.80
26272;DHT22;13997;48.902;12.472;2023-03-23T04:40:09;204.90;2252.80
26272;DHT22;13997;48.902;12.472;2023-03-23T04:42:40;204.90;2252.80
26272;DHT22;13997;48.902;12.472;2023-03-23T04:45:07;204.90;2252.80
26272;DHT22;13997;48.902;12.472;2023-03-23T04:47:35;204.90;2252.80
26272;DHT22;13997;48.902;12.472;2023-03-23T04:50:14;204.90;2252.80
26272;DHT22;13997;48.902;12.472;2023-03-23T04:52:40;204.90;2252.80
26272;DHT22;13997;48.902;12.472;2023-03-23T04:55:10;204.90;2252.80
26272;DHT22;13997;48.902;12.472;2023-03-23T04:57:37;204.90;2252.80
26272;DHT22;13997;48.902;12.472;2023-03-23T05:00:04;204.90;2252.80
26272;DHT22;13997;48.902;12.472;2023-03-23T05:02:37;204.90;2252.80
26272;DHT22;13997;48.902;12.472;2023-03-23T05:05:05;204.90;2252.80
26272;DHT22;13997;48.902;12.472;2023-03-23T05:07:31;204.90;2252.80
26272;DHT22;13997;48.902;12.472;2023-03-23T05:09:57;204.90;2252.80
26272;DHT22;13997;48.902;12.472;2023-03-23T05:12:22;204.90;2252.80
26272;DHT22;13997;48.902;12.472;2023-03-23T05:14:48;204.90;2252.80
26272;DHT22;13997;48.902;12.472;2023-03-23T05:17:14;204.90;2252.80
26272;DHT22;13997;48.902;12.472;2023-03-23T05:19:43;205.00;2252.80
26272;DHT22;13997;48.902;12.472;2023-03-23T05:22:10;205.00;2252.80
26272;DHT22;13997;48.902;12.472;2023-03-23T05:24:38;205.00;2252.80
26272;DHT22;13997;48.902;12.472;2023-03-23T05:27:03;205.00;2252.80
26272;DHT22;13997;48.902;12.472;2023-03-23T05:29:29;205.00;2252.80
26272;DHT22;13997;48.902;12.472;2023-03-23T05:31:56;205.00;2252.80
26272;DHT22;13997;48.902;12.472;2023-03-23T05:34:26;205.00;2252.80
26272;DHT22;13997;48.902;12.472;2023-03-23T05:36:52;205.00;2252.80
26272;DHT22;13997;48.902;12.472;2023-03-23T05:39:18;205.00;2252.80
26272;DHT22;13997;48.902;12.472;2023-03-23T05:41:44;205.00;2252.80
26272;DHT22;13997;48.902;12.472;2023-03-23T05:44:10;205.00;2252.80
26272;DHT22;13997;48.902;12.472;2023-03-23T05:46:38;205.00;2252.80
26272;DHT22;13997;48.902;12.472;2023-03-23T05:49:04;205.00;2252.80
26272;DHT22;13997;48.902;12.472;2023-03-23T05:51:30;205.10;2252.80
26272;DHT22;13997;48.902;12.472;2023-03-23T05:53:56;205.10;2252.80
26272;DHT22;13997;48.902;12.472;2023-03-23T05:56:21;205.10;2252.80
26272;DHT22;13997;48.902;12.472;2023-03-23T05:58:47;205.10;2252.80
26272;DHT22;13997;48.902;12.472;2023-03-23T06:01:12;205.20;2252.80
26272;DHT22;13997;48.902;12.472;2023-03-23T06:03:41;205.20;2252.80
26272;DHT22;13997;48.902;12.472;2023-03-23T06:06:09;205.20;2252.80
26272;DHT22;13997;48.902;12.472;2023-03-23T06:08:35;205.20;2252.80
26272;DHT22;13997;48.902;12.472;2023-03-23T06:11:03;205.20;2252.80
26272;DHT22;13997;48.902;12.472;2023-03-23T06:13:28;205.20;2252.80
26272;DHT22;13997;48.902;12.472;2023-03-23T06:15:57;205.20;2252.80
26272;DHT22;13997;48.902;12.472;2023-03-23T06:18:23;205.20;2252.80
26272;DHT22;13997;48.902;12.472;2023-03-23T06:20:49;205.20;2252.80
26272;DHT22;13997;48.902;12.472;2023-03-23T06:23:16;205.20;2252.80
26272;DHT22;13997;48.902;12.472;2023-03-23T06:25:42;205.20;2252.80
26272;DHT22;13997;48.902;12.472;2023-03-23T06:28:07;205.30;2252.80
26272;DHT22;13997;48.902;12.472;2023-03-23T06:30:34;205.30;2252.80
26272;DHT22;13997;48.902;12.472;2023-03-23T06:33:00;205.40;2252.80
26272;DHT22;13997;48.902;12.472;2023-03-23T06:35:27;205.40;2252.80
26272;DHT22;13997;48.902;12.472;2023-03-23T06:37:53;205.40;2252.80
26272;DHT22;13997;48.902;12.472;2023-03-23T06:40:19;205.40;2252.80
26272;DHT22;13997;48.902;12.472;2023-03-23T06:42:45;205.50;2252.80
26272;DHT22;13997;48.902;12.472;2023-03-23T06:45:10;205.50;2252.80
26272;DHT22;13997;48.902;12.472;2023-03-23T06:47:36;205.50;2252.80
26272;DHT22;13997;48.902;12.472;2023-03-23T06:50:02;205.50;2252.80
26272;DHT22;13997;48.902;12.472;2023-03-23T06:52:27;205.60;2252.80
26272;DHT22;13997;48.902;12.472;2023-03-23T06:54:53;205.60;2252.80
26272;DHT22;13997;48.902;12.472;2023-03-23T06:57:19;205.70;2252.80
26272;DHT22;13997;48.902;12.472;2023-03-23T06:59:45;230.40;2252.80
26272;DHT22;13997;48.902;12.472;2023-03-23T07:02:12;230.40;2252.80
26272;DHT22;13997;48.902;12.472;2023-03-23T07:04:39;230.50;2252.80
26272;DHT22;13997;48.902;12.472;2023-03-23T07:07:09;230.60;2252.80
26272;DHT22;13997;48.902;12.472;2023-03-23T07:09:36;230.70;2252.80
26272;DHT22;13997;48.902;12.472;2023-03-23T07:12:02;230.80;2252.80
26272;DHT22;13997;48.902;12.472;2023-03-23T07:14:29;230.90;2252.80
26272;DHT22;13997;48.902;12.472;2023-03-23T07:16:54;231.00;2252.80
26272;DHT22;13997;48.902;12.472;2023-03-23T07:19:22;231.10;2252.80
26272;DHT22;13997;48.902;12.472;2023-03-23T07:21:47;231.20;2252.80
26272;DHT22;13997;48.902;12.472;2023-03-23T07:24:14;231.20;2252.80
26272;DHT22;13997;48.902;12.472;2023-03-23T07:26:40;231.30;2252.80
26272;DHT22;13997;48.902;12.472;2023-03-23T07:29:07;231.30;2252.80
26272;DHT22;13997;48.902;12.472;2023-03-23T07:31:35;231.30;2252.80
26272;DHT22;13997;48.902;12.472;2023-03-23T07:34:02;231.30;2252.80
26272;DHT22;13997;48.902;12.472;2023-03-23T07:36:28;231.30;2252.80
26272;DHT22;13997;48.902;12.472;2023-03-23T07:38:54;231.30;2252.80
26272;DHT22;13997;48.902;12.472;2023-03-23T07:41:20;231.30;2252.80
26272;DHT22;13997;48.902;12.472;2023-03-23T07:43:46;256.00;2252.80
26272;DHT22;13997;48.902;12.472;2023-03-23T07:46:12;256.00;2252.80
26272;DHT22;13997;48.902;12.472;2023-03-23T07:48:38;256.00;2252.80
26272;DHT22;13997;48.902;12.472;2023-03-23T07:51:05;256.00;2252.80
26272;DHT22;13997;48.902;12.472;2023-03-23T07:53:30;256.00;2252.80
26272;DHT22;13997;48.902;12.472;2023-03-23T07:55:57;256.00;2252.80
26272;DHT22;13997;48.902;12.472;2023-03-23T07:58:23;256.10;2252.80
26272;DHT22;13997;48.902;12.472;2023-03-23T08:00:49;256.10;2252.80
26272;DHT22;13997;48.902;12.472;2023-03-23T08:03:15;256.20;2252.80
26272;DHT22;13997;48.902;12.472;2023-03-23T08:05:42;256.30;2252.80
26272;DHT22;13997;48.902;12.472;2023-03-23T08:08:09;256.40;2252.80
26272;DHT22;13997;48.902;12.472;2023-03-23T08:10:35;256.40;2252.80
26272;DHT22;13997;48.902;12.472;2023-03-23T08:13:01;256.50;2252.80
26272;DHT22;13997;48.902;12.472;2023-03-23T08:15:28;256.60;2252.80
26272;DHT22;13997;48.902;12.472;2023-03-23T08:17:54;256.60;2252.80
26272;DHT22;13997;48.902;12.472;2023-03-23T08:20:20;256.70;2252.80
26272;DHT22;13997;48.902;12.472;2023-03-23T08:22:53;256.70;2252.80
26272;DHT22;13997;48.902;12.472;2023-03-23T08:25:21;256.80;2252.80
26272;DHT22;13997;48.902;12.472;2023-03-23T08:27:47;256.80;2252.80
26272;DHT22;13997;48.902;12.472;2023-03-23T08:30:15;256.90;2252.80
26272;DHT22;13997;48.902;12.472;2023-03-23T08:32:42;256.90;2252.80
26272;DHT22;13997;48.902;12.472;2023-03-23T08:35:09;281.60;2278.40
26272;DHT22;13997;48.902;12.472;2023-03-23T08:37:35;281.70;2278.40
26272;DHT22;13997;48.902;12.472;2023-03-23T08:40:01;281.70;2278.40
26272;DHT22;13997;48.902;12.472;2023-03-23T08:42:32;281.80;2278.40
26272;DHT22;13997;48.902;12.472;2023-03-23T08:44:58;281.90;2278.40
26272;DHT22;13997;48.902;12.472;2023-03-23T08:47:24;282.00;2278.40
26272;DHT22;13997;48.902;12.472;2023-03-23T08:49:50;282.00;2278.40
26272;DHT22;13997;48.902;12.472;2023-03-23T08:52:18;282.10;2278.40
26272;DHT22;13997;48.902;12.472;2023-03-23T08:54:44;282.20;2278.40
26272;DHT22;13997;48.902;12.472;2023-03-23T08:57:13;282.30;2278.40
26272;DHT22;13997;48.902;12.472;2023-03-23T08:59:41;282.50;2278.40
26272;DHT22;13997;48.902;12.472;2023-03-23T09:02:12;282.40;2278.40
26272;DHT22;13997;48.902;12.472;2023-03-23T09:04:39;282.50;2278.40
26272;DHT22;13997;48.902;12.472;2023-03-23T09:07:05;307.30;2304.00
26272;DHT22;13997;48.902;12.472;2023-03-23T09:09:31;307.40;2304.00
26272;DHT22;13997;48.902;12.472;2023-03-23T09:11:59;307.40;2304.00
26272;DHT22;13997;48.902;12.472;2023-03-23T09:14:25;307.50;2304.00
26272;DHT22;13997;48.902;12.472;2023-03-23T09:16:52;307.80;2304.00
26272;DHT22;13997;48.902;12.472;2023-03-23T09:19:17;308.10;2304.00
26272;DHT22;13997;48.902;12.472;2023-03-23T09:21:44;332.90;2329.60
26272;DHT22;13997;48.902;12.472;2023-03-23T09:24:10;333.00;2329.60
26272;DHT22;13997;48.902;12.472;2023-03-23T09:26:36;333.30;2329.60
26272;DHT22;13997;48.902;12.472;2023-03-23T09:29:02;333.40;2329.60
26272;DHT22;13997;48.902;12.472;2023-03-23T09:31:28;333.30;2329.60
26272;DHT22;13997;48.902;12.472;2023-03-23T09:33:54;333.50;2329.60
26272;DHT22;13997;48.902;12.472;2023-03-23T09:36:22;333.60;2329.60
26272;DHT22;13997;48.902;12.472;2023-03-23T09:38:48;333.60;2329.60
26272;DHT22;13997;48.902;12.472;2023-03-23T09:43:47;333.60;2329.60
26272;DHT22;13997;48.902;12.472;2023-03-23T09:51:57;333.60;2329.60
26272;DHT22;13997;48.902;12.472;2023-03-23T09:54:31;333.60;2329.60
26272;DHT22;13997;48.902;12.472;2023-03-23T09:57:00;333.70;2329.60
26272;DHT22;13997;48.902;12.472;2023-03-23T09:59:55;358.40;2329.60
26272;DHT22;13997;48.902;12.472;2023-03-23T10:02:30;358.70;2329.60
26272;DHT22;13997;48.902;12.472;2023-03-23T10:05:35;358.70;2329.60
26272;DHT22;13997;48.902;12.472;2023-03-23T10:08:08;358.70;2329.60
26272;DHT22;13997;48.902;12.472;2023-03-23T10:10:45;358.80;2329.60
26272;DHT22;13997;48.902;12.472;2023-03-23T10:16:15;358.90;2329.60
26272;DHT22;13997;48.902;12.472;2023-03-23T10:18:58;359.00;2329.60
26272;DHT22;13997;48.902;12.472;2023-03-23T10:21:29;359.00;2329.60
26272;DHT22;13997;48.902;12.472;2023-03-23T10:24:09;359.20;2329.60
26272;DHT22;13997;48.902;12.472;2023-03-23T10:29:29;359.10;2329.60
26272;DHT22;13997;48.902;12.472;2023-03-23T10:32:13;359.10;2329.60
26272;DHT22;13997;48.902;12.472;2023-03-23T10:34:59;359.30;2329.60
26272;DHT22;13997;48.902;12.472;2023-03-23T10:37:35;359.30;2329.60
26272;DHT22;13997;48.902;12.472;2023-03-23T10:40:04;359.30;2329.60
26272;DHT22;13997;48.902;12.472;2023-03-23T10:42:36;384.00;2329.60
26272;DHT22;13997;48.902;12.472;2023-03-23T10:45:23;384.10;2329.60
26272;DHT22;13997;48.902;12.472;2023-03-23T10:48:17;384.20;2329.60
26272;DHT22;13997;48.902;12.472;2023-03-23T10:50:48;384.40;2329.60
26272;DHT22;13997;48.902;12.472;2023-03-23T10:53:19;384.50;2329.60
26272;DHT22;13997;48.902;12.472;2023-03-23T10:55:45;384.50;2329.60
26272;DHT22;13997;48.902;12.472;2023-03-23T10:58:22;384.50;2329.60
26272;DHT22;13997;48.902;12.472;2023-03-23T11:00:49;384.50;2329.60
26272;DHT22;13997;48.902;12.472;2023-03-23T11:08:15;384.90;2329.60
26272;DHT22;13997;48.902;12.472;2023-03-23T11:10:42;384.90;2329.60
26272;DHT22;13997;48.902;12.472;2023-03-23T11:13:13;409.70;2355.20
26272;DHT22;13997;48.902;12.472;2023-03-23T11:15:42;409.80;2355.20
26272;DHT22;13997;48.902;12.472;2023-03-23T11:18:35;410.00;2355.20
26272;DHT22;13997;48.902;12.472;2023-03-23T11:21:02;410.10;2355.20
26272;DHT22;13997;48.902;12.472;2023-03-23T11:23:36;410.10;2355.20
26272;DHT22;13997;48.902;12.472;2023-03-23T11:26:30;410.40;2355.20
26272;DHT22;13997;48.902;12.472;2023-03-23T11:31:30;435.40;2355.20
26272;DHT22;13997;48.902;12.472;2023-03-23T11:34:02;435.60;2355.20
26272;DHT22;13997;48.902;12.472;2023-03-23T11:36:38;435.70;2355.20
26272;DHT22;13997;48.902;12.472;2023-03-23T11:39:24;435.80;2355.20
26272;DHT22;13997;48.902;12.472;2023-03-23T11:41:50;436.00;2355.20
26272;DHT22;13997;48.902;12.472;2023-03-23T11:44:16;436.10;2355.20
26272;DHT22;13997;48.902;12.472;2023-03-23T11:47:29;460.90;2380.80
26272;DHT22;13997;48.902;12.472;2023-03-23T11:49:48;460.90;2380.80
26272;DHT22;13997;48.902;12.472;2023-03-23T11:52:51;461.10;2380.80
26272;DHT22;13997;48.902;12.472;2023-03-23T11:55:22;461.30;2380.80
26272;DHT22;13997;48.902;12.472;2023-03-23T11:57:49;461.50;2380.80
26272;DHT22;13997;48.902;12.472;2023-03-23T12:00:19;461.60;2380.80
26272;DHT22;13997;48.902;12.472;2023-03-23T12:03:05;461.60;2380.80
26272;DHT22;13997;48.902;12.472;2023-03-23T12:05:47;461.60;2380.80
26272;DHT22;13997;48.902;12.472;2023-03-23T12:27:37;461.60;2380.80
26272;DHT22;13997;48.902;12.472;2023-03-23T12:36:02;486.40;2380.80
26272;DHT22;13997;48.902;12.472;2023-03-23T12:44:06;486.50;2380.80
26272;DHT22;13997;48.902;12.472;2023-03-23T12:54:45;486.40;2380.80
26272;DHT22;13997;48.902;12.472;2023-03-23T12:57:40;486.40;2380.80
26272;DHT22;13997;48.902;12.472;2023-03-23T13:00:30;461.70;2380.80
26272;DHT22;13997;48.902;12.472;2023-03-23T13:03:08;461.70;2380.80
26272;DHT22;13997;48.902;12.472;2023-03-23T13:06:04;461.70;2380.80
26272;DHT22;13997;48.902;12.472;2023-03-23T13:08:44;486.40;2380.80
26272;DHT22;13997;48.902;12.472;2023-03-23T13:11:16;461.70;2380.80
26272;DHT22;13997;48.902;12.472;2023-03-23T13:16:39;461.70;2380.80
26272;DHT22;13997;48.902;12.472;2023-03-23T13:19:29;461.70;2380.80
26272;DHT22;13997;48.902;12.472;2023-03-23T13:24:34;486.40;2380.80
26272;DHT22;13997;48.902;12.472;2023-03-23T13:27:01;486.40;2380.80
26272;DHT22;13997;48.902;12.472;2023-03-23T13:29:28;486.40;2380.80
26272;DHT22;13997;48.902;12.472;2023-03-23T13:32:16;461.70;2380.80
26272;DHT22;13997;48.902;12.472;2023-03-23T13:34:42;461.60;2380.80
26272;DHT22;13997;48.902;12.472;2023-03-23T13:37:20;461.60;2380.80
26272;DHT22;13997;48.902;12.472;2023-03-23T13:40:00;461.50;2380.80
26272;DHT22;13997;48.902;12.472;2023-03-23T13:42:28;461.50;2380.80
26272;DHT22;13997;48.902;12.472;2023-03-23T13:52:55;461.40;2380.80
26272;DHT22;13997;48.902;12.472;2023-03-23T14:08:45;461.10;2380.80
26272;DHT22;13997;48.902;12.472;2023-03-23T14:11:15;461.00;2380.80
26272;DHT22;13997;48.902;12.472;2023-03-23T14:14:01;460.90;2380.80
26272;DHT22;13997;48.902;12.472;2023-03-23T14:16:37;460.80;2380.80
26272;DHT22;13997;48.902;12.472;2023-03-23T14:19:24;460.80;2380.80
26272;DHT22;13997;48.902;12.472;2023-03-23T14:24:24;436.10;2355.20
26272;DHT22;13997;48.902;12.472;2023-03-23T14:26:52;436.10;2355.20
26272;DHT22;13997;48.902;12.472;2023-03-23T14:29:18;436.10;2355.20
26272;DHT22;13997;48.902;12.472;2023-03-23T14:31:52;436.10;2355.20
26272;DHT22;13997;48.902;12.472;2023-03-23T14:34:20;436.00;2355.20
26272;DHT22;13997;48.902;12.472;2023-03-23T14:36:47;436.00;2355.20
26272;DHT22;13997;48.902;12.472;2023-03-23T14:39:30;436.00;2355.20
26272;DHT22;13997;48.902;12.472;2023-03-23T14:42:01;435.90;2355.20
26272;DHT22;13997;48.902;12.472;2023-03-23T14:44:35;436.00;2355.20
26272;DHT22;13997;48.902;12.472;2023-03-23T14:47:05;436.00;2355.20
26272;DHT22;13997;48.902;12.472;2023-03-23T14:49:42;436.00;2355.20
26272;DHT22;13997;48.902;12.472;2023-03-23T14:52:14;436.00;2355.20
26272;DHT22;13997;48.902;12.472;2023-03-23T14:54:41;436.00;2355.20
26272;DHT22;13997;48.902;12.472;2023-03-23T14:59:51;436.00;2355.20
26272;DHT22;13997;48.902;12.472;2023-03-23T15:02:26;436.00;2355.20
26272;DHT22;13997;48.902;12.472;2023-03-23T15:05:00;436.00;2355.20
26272;DHT22;13997;48.902;12.472;2023-03-23T15:07:31;436.00;2355.20
26272;DHT22;13997;48.902;12.472;2023-03-23T15:09:57;436.00;2355.20
26272;DHT22;13997;48.902;12.472;2023-03-23T15:12:26;435.90;2355.20
26272;DHT22;13997;48.902;12.472;2023-03-23T15:14:55;435.90;2355.20
26272;DHT22;13997;48.902;12.472;2023-03-23T15:17:28;435.90;2355.20
26272;DHT22;13997;48.902;12.472;2023-03-23T15:19:54;435.90;2355.20
26272;DHT22;13997;48.902;12.472;2023-03-23T15:22:27;435.80;2355.20
26272;DHT22;13997;48.902;12.472;2023-03-23T15:25:10;435.80;2355.20
26272;DHT22;13997;48.902;12.472;2023-03-23T15:27:44;435.80;2355.20
26272;DHT22;13997;48.902;12.472;2023-03-23T15:32:54;435.80;2355.20
26272;DHT22;13997;48.902;12.472;2023-03-23T15:35:23;435.80;2355.20
26272;DHT22;13997;48.902;12.472;2023-03-23T15:38:02;435.90;2355.20
26272;DHT22;13997;48.902;12.472;2023-03-23T15:40:36;435.90;2355.20
26272;DHT22;13997;48.902;12.472;2023-03-23T15:43:18;435.90;2355.20
26272;DHT22;13997;48.902;12.472;2023-03-23T15:46:03;435.90;2355.20
26272;DHT22;13997;48.902;12.472;2023-03-23T15:49:19;435.90;2355.20
26272;DHT22;13997;48.902;12.472;2023-03-23T15:51:21;435.90;2355.20
26272;DHT22;13997;48.902;12.472;2023-03-23T15:53:50;435.90;2355.20
26272;DHT22;13997;48.902;12.472;2023-03-23T15:56:16;435.90;2355.20
26272;DHT22;13997;48.902;12.472;2023-03-23T15:58:42;435.90;2355.20
26272;DHT22;13997;48.902;12.472;2023-03-23T16:01:23;435.90;2355.20
26272;DHT22;13997;48.902;12.472;2023-03-23T16:03:53;435.90;2355.20
26272;DHT22;13997;48.902;12.472;2023-03-23T16:06:21;435.80;2355.20
26272;DHT22;13997;48.902;12.472;2023-03-23T16:08:47;435.80;2355.20
26272;DHT22;13997;48.902;12.472;2023-03-23T16:11:15;435.80;2355.20
26272;DHT22;13997;48.902;12.472;2023-03-23T16:13:41;435.80;2355.20
26272;DHT22;13997;48.902;12.472;2023-03-23T16:16:35;435.70;2355.20
26272;DHT22;13997;48.902;12.472;2023-03-23T16:19:01;435.70;2355.20
26272;DHT22;13997;48.902;12.472;2023-03-23T16:21:27;435.60;2355.20
26272;DHT22;13997;48.902;12.472;2023-03-23T16:23:53;435.60;2355.20
26272;DHT22;13997;48.902;12.472;2023-03-23T16:26:19;435.60;2355.20
26272;DHT22;13997;48.902;12.472;2023-03-23T16:28:45;435.60;2355.20
26272;DHT22;13997;48.902;12.472;2023-03-23T16:31:11;435.60;2355.20
26272;DHT22;13997;48.902;12.472;2023-03-23T16:33:37;435.60;2355.20
26272;DHT22;13997;48.902;12.472;2023-03-23T16:36:02;435.60;2355.20
26272;DHT22;13997;48.902;12.472;2023-03-23T16:38:28;435.60;2355.20
26272;DHT22;13997;48.902;12.472;2023-03-23T16:40:54;435.50;2355.20
26272;DHT22;13997;48.902;12.472;2023-03-23T16:43:20;435.50;2355.20
26272;DHT22;13997;48.902;12.472;2023-03-23T16:45:46;435.40;2355.20